sensor_id;sensor_type;location;lat;lon;timestamp;pressure;altitude;pressure_sealevel;temperature;humidity
22872;BME280;11603;44.910;8.630;2023-02-22T00:00:38;100954.34;;;10.28;100.00
22872;BME280;11603;44.910;8.630;2023-02-22T00:03:21;100957.63;;;10.33;100.00
22872;BME280;11603;44.910;8.630;2023-02-22T00:05:54;100963.22;;;10.29;100.00
22872;BME280;11603;44.910;8.630;2023-02-22T00:08:22;100958.06;;;10.08;100.00
22872;BME280;11603;44.910;8.630;2023-02-22T00:10:48;100950.19;;;10.05;100.00
22872;BME280;11603;44.910;8.630;2023-02-22T00:13:17;100953.66;;;10.07;100.00
22872;BME280;11603;44.910;8.630;2023-02-22T00:15:43;100959.63;;;10.12;100.00
22872;BME280;11603;44.910;8.630;2023-02-22T00:18:14;100951.06;;;10.23;100.00
22872;BME280;11603;44.910;8.630;2023-02-22T00:20:40;100948.47;;;10.22;100.00
22872;BME280;11603;44.910;8.630;2023-02-22T00:23:11;100948.63;;;10.18;100.00
22872;BME280;11603;44.910;8.630;2023-02-22T00:25:37;100956.88;;;10.14;100.00
22872;BME280;11603;44.910;8.630;2023-02-22T00:28:03;100947.06;;;10.14;100.00
22872;BME280;11603;44.910;8.630;2023-02-22T00:30:30;100948.72;;;10.17;100.00
22872;BME280;11603;44.910;8.630;2023-02-22T00:32:57;100945.56;;;10.09;100.00
22872;BME280;11603;44.910;8.630;2023-02-22T00:35:28;100959.94;;;10.06;100.00
22872;BME280;11603;44.910;8.630;2023-02-22T00:37:56;100952.66;;;10.10;100.00
22872;BME280;11603;44.910;8.630;2023-02-22T00:40:28;100951.00;;;10.07;100.00
22872;BME280;11603;44.910;8.630;2023-02-22T00:42:56;100947.47;;;10.07;100.00
22872;BME280;11603;44.910;8.630;2023-02-22T00:45:24;100948.03;;;9.96;100.00
22872;BME280;11603;44.910;8.630;2023-02-22T00:47:50;100946.47;;;9.92;100.00
22872;BME280;11603;44.910;8.630;2023-02-22T00:50:17;100943.75;;;9.94;100.00
22872;BME280;11603;44.910;8.630;2023-02-22T00:52:43;100941.94;;;9.94;100.00
22872;BME280;11603;44.910;8.630;2023-02-22T00:55:15;100940.63;;;10.01;100.00
22872;BME280;11603;44.910;8.630;2023-02-22T00:57:40;100946.59;;;10.06;100.00
22872;BME280;11603;44.910;8.630;2023-02-22T01:00:13;100933.16;;;10.08;100.00
22872;BME280;11603;44.910;8.630;2023-02-22T01:02:40;100938.13;;;9.98;100.00
22872;BME280;11603;44.910;8.630;2023-02-22T01:05:10;100933.66;;;9.99;100.00
22872;BME280;11603;44.910;8.630;2023-02-22T01:07:42;100942.69;;;9.96;100.00
22872;BME280;11603;44.910;8.630;2023-02-22T01:10:09;100935.63;;;9.95;100.00
22872;BME280;11603;44.910;8.630;2023-02-22T01:12:36;100940.19;;;9.93;100.00
22872;BME280;11603;44.910;8.630;2023-02-22T01:15:04;100941.28;;;9.89;100.00
22872;BME280;11603;44.910;8.630;2023-02-22T01:17:30;100942.00;;;9.93;100.00
22872;BME280;11603;44.910;8.630;2023-02-22T01:19:56;100938.38;;;9.94;100.00
22872;BME280;11603;44.910;8.630;2023-02-22T01:22:21;100927.69;;;9.94;100.00
22872;BME280;11603;44.910;8.630;2023-02-22T01:24:48;100932.06;;;9.95;100.00
22872;BME280;11603;44.910;8.630;2023-02-22T01:27:14;100930.53;;;9.91;100.00
22872;BME280;11603;44.910;8.630;2023-02-22T01:29:40;100924.84;;;9.97;100.00
22872;BME280;11603;44.910;8.630;2023-02-22T01:32:06;100921.94;;;10.01;100.00
22872;BME280;11603;44.910;8.630;2023-02-22T01:34:33;100927.44;;;9.98;100.00
22872;BME280;11603;44.910;8.630;2023-02-22T01:36:59;100917.97;;;9.93;100.00
22872;BME280;11603;44.910;8.630;2023-02-22T01:39:26;100925.69;;;9.82;100.00
22872;BME280;11603;44.910;8.630;2023-02-22T01:41:52;100911.28;;;9.84;100.00
22872;BME280;11603;44.910;8.630;2023-02-22T01:46:59;100912.44;;;9.96;100.00
22872;BME280;11603;44.910;8.630;2023-02-22T01:49:35;100911.50;;;9.97;100.00
22872;BME280;11603;44.910;8.630;2023-02-22T01:52:05;100908.56;;;10.01;100.00
22872;BME280;11603;44.910;8.630;2023-02-22T01:54:38;100903.22;;;10.01;100.00
22872;BME280;11603;44.910;8.630;2023-02-22T01:57:17;100914.25;;;10.11;100.00
22872;BME280;11603;44.910;8.630;2023-02-22T01:59:47;100901.53;;;10.16;100.00
22872;BME280;11603;44.910;8.630;2023-02-22T02:02:15;100897.34;;;10.10;100.00
22872;BME280;11603;44.910;8.630;2023-02-22T02:04:40;100896.53;;;10.10;100.00
22872;BME280;11603;44.910;8.630;2023-02-22T02:07:09;100899.59;;;10.02;100.00
22872;BME280;11603;44.910;8.630;2023-02-22T02:09:41;100897.25;;;9.96;100.00
22872;BME280;11603;44.910;8.630;2023-02-22T02:12:10;100893.72;;;9.96;100.00
22872;BME280;11603;44.910;8.630;2023-02-22T02:14:37;100895.13;;;10.03;100.00
22872;BME280;11603;44.910;8.630;2023-02-22T02:17:07;100901.88;;;10.10;100.00
22872;BME280;11603;44.910;8.630;2023-02-22T02:22:16;100889.56;;;10.23;100.00
22872;BME280;11603;44.910;8.630;2023-02-22T02:33:22;100877.09;;;10.06;100.00
22872;BME280;11603;44.910;8.630;2023-02-22T02:41:54;100870.47;;;10.13;100.00
22872;BME280;11603;44.910;8.630;2023-02-22T02:47:09;100869.84;;;10.26;100.00
22872;BME280;11603;44.910;8.630;2023-02-22T02:52:46;100864.13;;;10.32;100.00
22872;BME280;11603;44.910;8.630;2023-02-22T02:55:12;100865.56;;;10.37;100.00
22872;BME280;11603;44.910;8.630;2023-02-22T02:57:40;100865.16;;;10.45;100.00
22872;BME280;11603;44.910;8.630;2023-02-22T03:00:07;100862.56;;;10.43;100.00
22872;BME280;11603;44.910;8.630;2023-02-22T03:08:28;100853.66;;;10.43;100.00
22872;BME280;11603;44.910;8.630;2023-02-22T03:11:15;100854.53;;;10.43;100.00
22872;BME280;11603;44.910;8.630;2023-02-22T03:17:20;100855.00;;;10.36;100.00
22872;BME280;11603;44.910;8.630;2023-02-22T03:19:46;100853.25;;;10.19;100.00
22872;BME280;11603;44.910;8.630;2023-02-22T03:22:22;100856.81;;;10.19;100.00
22872;BME280;11603;44.910;8.630;2023-02-22T03:27:30;100845.06;;;10.22;100.00
22872;BME280;11603;44.910;8.630;2023-02-22T03:30:04;100848.44;;;10.26;100.00
22872;BME280;11603;44.910;8.630;2023-02-22T03:32:36;100856.88;;;10.34;100.00
22872;BME280;11603;44.910;8.630;2023-02-22T03:35:14;100846.09;;;10.35;100.00
22872;BME280;11603;44.910;8.630;2023-02-22T03:37:45;100859.91;;;10.28;100.00
22872;BME280;11603;44.910;8.630;2023-02-22T03:40:19;100857.66;;;10.20;100.00
22872;BME280;11603;44.910;8.630;2023-02-22T03:42:54;100848.88;;;10.18;100.00
22872;BME280;11603;44.910;8.630;2023-02-22T03:45:26;100844.78;;;10.27;100.00
22872;BME280;11603;44.910;8.630;2023-02-22T03:48:07;100853.88;;;10.24;100.00
22872;BME280;11603;44.910;8.630;2023-02-22T03:50:37;100848.78;;;10.19;100.00
22872;BME280;11603;44.910;8.630;2023-02-22T03:53:04;100859.63;;;10.16;100.00
22872;BME280;11603;44.910;8.630;2023-02-22T03:55:34;100851.47;;;10.19;100.00
22872;BME280;11603;44.910;8.630;2023-02-22T03:58:03;100853.59;;;10.29;100.00
22872;BME280;11603;44.910;8.630;2023-02-22T04:00:33;100865.84;;;10.33;100.00
22872;BME280;11603;44.910;8.630;2023-02-22T04:02:59;100867.91;;;10.28;100.00
22872;BME280;11603;44.910;8.630;2023-02-22T04:05:24;100858.44;;;10.22;100.00
22872;BME280;11603;44.910;8.630;2023-02-22T04:07:51;100857.41;;;10.25;100.00
22872;BME280;11603;44.910;8.630;2023-02-22T04:10:17;100853.16;;;10.20;100.00
22872;BME280;11603;44.910;8.630;2023-02-22T04:12:43;100854.81;;;10.23;100.00
22872;BME280;11603;44.910;8.630;2023-02-22T04:15:11;100849.38;;;10.25;100.00
22872;BME280;11603;44.910;8.630;2023-02-22T04:17:37;100859.38;;;10.21;100.00
22872;BME280;11603;44.910;8.630;2023-02-22T04:20:04;100870.78;;;10.25;100.00
22872;BME280;11603;44.910;8.630;2023-02-22T04:22:41;100860.94;;;10.25;100.00
22872;BME280;11603;44.910;8.630;2023-02-22T04:25:07;100854.63;;;10.26;100.00
22872;BME280;11603;44.910;8.630;2023-02-22T04:27:32;100859.91;;;10.28;100.00
22872;BME280;11603;44.910;8.630;2023-02-22T04:29:59;100859.13;;;10.26;100.00
22872;BME280;11603;44.910;8.630;2023-02-22T04:32:25;100863.69;;;10.24;100.00
22872;BME280;11603;44.910;8.630;2023-02-22T04:34:51;100858.34;;;10.24;100.00
22872;BME280;11603;44.910;8.630;2023-02-22T04:37:17;100858.00;;;10.30;100.00
22872;BME280;11603;44.910;8.630;2023-02-22T04:39:42;100855.34;;;10.30;100.00
22872;BME280;11603;44.910;8.630;2023-02-22T04:42:08;100856.28;;;10.29;100.00
22872;BME280;11603;44.910;8.630;2023-02-22T04:44:33;100853.53;;;10.30;100.00
22872;BME280;11603;44.910;8.630;2023-02-22T04:47:00;100853.78;;;10.26;100.00
22872;BME280;11603;44.910;8.630;2023-02-22T04:49:26;100849.81;;;10.17;100.00
22872;BME280;11603;44.910;8.630;2023-02-22T04:51:53;100854.22;;;10.18;100.00
22872;BME280;11603;44.910;8.630;2023-02-22T04:54:22;100848.53;;;10.24;100.00
22872;BME280;11603;44.910;8.630;2023-02-22T04:56:49;100855.34;;;10.30;100.00
22872;BME280;11603;44.910;8.630;2023-02-22T04:59:16;100854.88;;;10.37;100.00
22872;BME280;11603;44.910;8.630;2023-02-22T05:01:46;100858.16;;;10.42;100.00
22872;BME280;11603;44.910;8.630;2023-02-22T05:04:11;100856.47;;;10.41;100.00
22872;BME280;11603;44.910;8.630;2023-02-22T05:06:37;100857.13;;;10.45;100.00
22872;BME280;11603;44.910;8.630;2023-02-22T05:09:03;100854.38;;;10.46;100.00
22872;BME280;11603;44.910;8.630;2023-02-22T05:11:28;100861.34;;;10.49;100.00
22872;BME280;11603;44.910;8.630;2023-02-22T05:13:53;100861.34;;;10.49;100.00
22872;BME280;11603;44.910;8.630;2023-02-22T05:16:19;100860.41;;;10.50;100.00
22872;BME280;11603;44.910;8.630;2023-02-22T05:18:45;100857.38;;;10.56;100.00
22872;BME280;11603;44.910;8.630;2023-02-22T05:21:11;100852.78;;;10.58;100.00
22872;BME280;11603;44.910;8.630;2023-02-22T05:23:38;100857.97;;;10.61;100.00
22872;BME280;11603;44.910;8.630;2023-02-22T05:26:03;100856.91;;;10.63;100.00
22872;BME280;11603;44.910;8.630;2023-02-22T05:28:31;100853.97;;;10.68;100.00
22872;BME280;11603;44.910;8.630;2023-02-22T05:30:56;100857.16;;;10.75;100.00
22872;BME280;11603;44.910;8.630;2023-02-22T05:33:22;100853.72;;;10.73;100.00
22872;BME280;11603;44.910;8.630;2023-02-22T05:35:47;100854.69;;;10.72;100.00
22872;BME280;11603;44.910;8.630;2023-02-22T05:38:13;100849.31;;;10.72;100.00
22872;BME280;11603;44.910;8.630;2023-02-22T05:40:39;100853.03;;;10.69;100.00
22872;BME280;11603;44.910;8.630;2023-02-22T05:43:05;100846.66;;;10.72;100.00
22872;BME280;11603;44.910;8.630;2023-02-22T05:45:30;100848.84;;;10.79;100.00
22872;BME280;11603;44.910;8.630;2023-02-22T05:47:56;100847.56;;;10.86;100.00
22872;BME280;11603;44.910;8.630;2023-02-22T05:50:22;100840.38;;;10.87;100.00
22872;BME280;11603;44.910;8.630;2023-02-22T05:52:49;100837.72;;;10.87;100.00
22872;BME280;11603;44.910;8.630;2023-02-22T05:55:17;100835.63;;;10.92;100.00
22872;BME280;11603;44.910;8.630;2023-02-22T05:57:43;100829.31;;;10.93;100.00
22872;BME280;11603;44.910;8.630;2023-02-22T06:00:13;100830.56;;;10.87;100.00
22872;BME280;11603;44.910;8.630;2023-02-22T06:02:40;100830.81;;;10.83;100.00
22872;BME280;11603;44.910;8.630;2023-02-22T06:05:05;100831.94;;;10.79;100.00
22872;BME280;11603;44.910;8.630;2023-02-22T06:07:31;100827.28;;;10.82;100.00
22872;BME280;11603;44.910;8.630;2023-02-22T06:09:56;100829.19;;;10.80;100.00
22872;BME280;11603;44.910;8.630;2023-02-22T06:12:23;100837.22;;;10.80;100.00
22872;BME280;11603;44.910;8.630;2023-02-22T06:14:48;100837.13;;;10.82;100.00
22872;BME280;11603;44.910;8.630;2023-02-22T06:17:14;100835.13;;;10.85;100.00
22872;BME280;11603;44.910;8.630;2023-02-22T06:19:40;100835.13;;;10.85;100.00
22872;BME280;11603;44.910;8.630;2023-02-22T06:22:06;100839.72;;;10.83;100.00
22872;BME280;11603;44.910;8.630;2023-02-22T06:24:32;100836.19;;;10.83;100.00
22872;BME280;11603;44.910;8.630;2023-02-22T06:27:00;100836.94;;;10.85;100.00
22872;BME280;11603;44.910;8.630;2023-02-22T06:29:27;100849.13;;;10.75;100.00
22872;BME280;11603;44.910;8.630;2023-02-22T06:31:53;100852.03;;;10.86;100.00
22872;BME280;11603;44.910;8.630;2023-02-22T06:34:18;100851.00;;;10.88;100.00
22872;BME280;11603;44.910;8.630;2023-02-22T06:36:44;100849.16;;;10.89;100.00
22872;BME280;11603;44.910;8.630;2023-02-22T06:39:13;100850.16;;;10.88;100.00
22872;BME280;11603;44.910;8.630;2023-02-22T06:41:44;100855.50;;;10.88;100.00
22872;BME280;11603;44.910;8.630;2023-02-22T06:44:12;100856.38;;;10.88;100.00
22872;BME280;11603;44.910;8.630;2023-02-22T06:46:38;100859.03;;;10.88;100.00
22872;BME280;11603;44.910;8.630;2023-02-22T06:49:04;100855.31;;;10.91;100.00
22872;BME280;11603;44.910;8.630;2023-02-22T06:51:34;100853.31;;;10.94;100.00
22872;BME280;11603;44.910;8.630;2023-02-22T06:54:01;100856.69;;;10.98;100.00
22872;BME280;11603;44.910;8.630;2023-02-22T06:56:26;100859.16;;;11.01;100.00
22872;BME280;11603;44.910;8.630;2023-02-22T06:58:51;100862.03;;;10.98;100.00
22872;BME280;11603;44.910;8.630;2023-02-22T07:01:17;100863.66;;;11.00;100.00
22872;BME280;11603;44.910;8.630;2023-02-22T07:03:42;100869.56;;;10.91;100.00
22872;BME280;11603;44.910;8.630;2023-02-22T07:06:08;100862.19;;;10.95;100.00
22872;BME280;11603;44.910;8.630;2023-02-22T07:08:35;100867.19;;;11.01;100.00
22872;BME280;11603;44.910;8.630;2023-02-22T07:11:01;100867.97;;;11.03;100.00
22872;BME280;11603;44.910;8.630;2023-02-22T07:13:26;100873.13;;;11.06;100.00
22872;BME280;11603;44.910;8.630;2023-02-22T07:15:51;100875.63;;;11.09;100.00
22872;BME280;11603;44.910;8.630;2023-02-22T07:18:17;100870.44;;;11.06;100.00
22872;BME280;11603;44.910;8.630;2023-02-22T07:20:43;100868.84;;;11.03;100.00
22872;BME280;11603;44.910;8.630;2023-02-22T07:23:08;100872.19;;;11.07;100.00
22872;BME280;11603;44.910;8.630;2023-02-22T07:25:34;100877.53;;;11.07;100.00
22872;BME280;11603;44.910;8.630;2023-02-22T07:27:59;100870.16;;;11.11;100.00
22872;BME280;11603;44.910;8.630;2023-02-22T07:30:27;100868.44;;;11.10;100.00
22872;BME280;11603;44.910;8.630;2023-02-22T07:32:58;100874.50;;;11.13;100.00
22872;BME280;11603;44.910;8.630;2023-02-22T07:35:26;100880.22;;;11.07;100.00
22872;BME280;11603;44.910;8.630;2023-02-22T07:37:53;100877.47;;;11.09;100.00
22872;BME280;11603;44.910;8.630;2023-02-22T07:40:19;100883.66;;;11.09;100.00
22872;BME280;11603;44.910;8.630;2023-02-22T07:42:55;100888.31;;;11.05;100.00
22872;BME280;11603;44.910;8.630;2023-02-22T07:45:23;100883.75;;;11.08;100.00
22872;BME280;11603;44.910;8.630;2023-02-22T07:47:48;100891.50;;;11.12;100.00
22872;BME280;11603;44.910;8.630;2023-02-22T07:50:15;100883.47;;;11.12;100.00
22872;BME280;11603;44.910;8.630;2023-02-22T07:52:50;100874.59;;;11.12;100.00
22872;BME280;11603;44.910;8.630;2023-02-22T07:55:17;100879.94;;;11.12;100.00
22872;BME280;11603;44.910;8.630;2023-02-22T07:57:47;100888.56;;;11.17;100.00
22872;BME280;11603;44.910;8.630;2023-02-22T08:00:15;100873.44;;;11.16;100.00
22872;BME280;11603;44.910;8.630;2023-02-22T08:02:41;100878.13;;;11.12;100.00
22872;BME280;11603;44.910;8.630;2023-02-22T08:05:09;100872.69;;;11.14;100.00
22872;BME280;11603;44.910;8.630;2023-02-22T08:07:36;100875.53;;;11.11;100.00
22872;BME280;11603;44.910;8.630;2023-02-22T08:10:03;100879.84;;;11.13;100.00
22872;BME280;11603;44.910;8.630;2023-02-22T08:12:35;100875.59;;;11.25;100.00
22872;BME280;11603;44.910;8.630;2023-02-22T08:15:02;100882.91;;;11.51;100.00
22872;BME280;11603;44.910;8.630;2023-02-22T08:17:28;100871.59;;;11.46;100.00
22872;BME280;11603;44.910;8.630;2023-02-22T08:19:54;100882.78;;;11.38;100.00
22872;BME280;11603;44.910;8.630;2023-02-22T08:22:19;100879.72;;;11.30;100.00
22872;BME280;11603;44.910;8.630;2023-02-22T08:24:45;100879.78;;;11.29;100.00
22872;BME280;11603;44.910;8.630;2023-02-22T08:27:10;100880.53;;;11.31;100.00
22872;BME280;11603;44.910;8.630;2023-02-22T08:29:36;100876.91;;;11.32;100.00
22872;BME280;11603;44.910;8.630;2023-02-22T08:32:02;100866.03;;;11.35;100.00
22872;BME280;11603;44.910;8.630;2023-02-22T08:34:27;100867.72;;;11.36;100.00
22872;BME280;11603;44.910;8.630;2023-02-22T08:36:53;100864.09;;;11.37;100.00
22872;BME280;11603;44.910;8.630;2023-02-22T08:39:19;100868.31;;;11.41;100.00
22872;BME280;11603;44.910;8.630;2023-02-22T08:41:44;100867.47;;;11.40;100.00
22872;BME280;11603;44.910;8.630;2023-02-22T08:44:21;100868.94;;;11.46;100.00
22872;BME280;11603;44.910;8.630;2023-02-22T08:46:50;100870.63;;;11.47;100.00
22872;BME280;11603;44.910;8.630;2023-02-22T08:49:16;100874.09;;;11.49;100.00
22872;BME280;11603;44.910;8.630;2023-02-22T08:51:41;100855.25;;;11.51;100.00
22872;BME280;11603;44.910;8.630;2023-02-22T08:54:07;100871.13;;;11.54;100.00
22872;BME280;11603;44.910;8.630;2023-02-22T08:56:33;100868.22;;;11.57;100.00
22872;BME280;11603;44.910;8.630;2023-02-22T08:58:58;100860.97;;;11.59;100.00
22872;BME280;11603;44.910;8.630;2023-02-22T09:01:24;100861.63;;;11.62;100.00
22872;BME280;11603;44.910;8.630;2023-02-22T09:03:50;100856.97;;;11.66;100.00
22872;BME280;11603;44.910;8.630;2023-02-22T09:06:18;100852.25;;;11.69;100.00
22872;BME280;11603;44.910;8.630;2023-02-22T09:08:44;100859.09;;;11.75;100.00
22872;BME280;11603;44.910;8.630;2023-02-22T09:11:09;100855.56;;;11.74;100.00
22872;BME280;11603;44.910;8.630;2023-02-22T09:13:35;100854.50;;;11.77;100.00
22872;BME280;11603;44.910;8.630;2023-02-22T09:16:00;100848.09;;;11.79;100.00
22872;BME280;11603;44.910;8.630;2023-02-22T09:18:26;100857.84;;;11.80;100.00
22872;BME280;11603;44.910;8.630;2023-02-22T09:20:53;100850.69;;;11.81;100.00
22872;BME280;11603;44.910;8.630;2023-02-22T09:23:19;100854.78;;;11.86;100.00
22872;BME280;11603;44.910;8.630;2023-02-22T09:25:49;100858.22;;;11.88;100.00
22872;BME280;11603;44.910;8.630;2023-02-22T09:28:15;100847.41;;;11.90;100.00
22872;BME280;11603;44.910;8.630;2023-02-22T09:30:41;100854.41;;;11.93;100.00
22872;BME280;11603;44.910;8.630;2023-02-22T09:33:15;100850.56;;;11.97;100.00
22872;BME280;11603;44.910;8.630;2023-02-22T09:35:43;100847.69;;;12.00;100.00
22872;BME280;11603;44.910;8.630;2023-02-22T09:38:12;100849.97;;;12.06;100.00
22872;BME280;11603;44.910;8.630;2023-02-22T09:40:41;100846.44;;;12.05;100.00
22872;BME280;11603;44.910;8.630;2023-02-22T09:49:03;100852.25;;;12.12;100.00
22872;BME280;11603;44.910;8.630;2023-02-22T09:51:36;100853.78;;;12.16;100.00
22872;BME280;11603;44.910;8.630;2023-02-22T09:54:09;100852.63;;;12.20;100.00
22872;BME280;11603;44.910;8.630;2023-02-22T09:56:39;100854.16;;;12.24;100.00
22872;BME280;11603;44.910;8.630;2023-02-22T09:59:07;100848.28;;;12.31;100.00
22872;BME280;11603;44.910;8.630;2023-02-22T10:01:44;100849.63;;;12.39;100.00
22872;BME280;11603;44.910;8.630;2023-02-22T10:07:00;100852.47;;;12.50;100.00
22872;BME280;11603;44.910;8.630;2023-02-22T10:09:32;100849.56;;;12.53;100.00
22872;BME280;11603;44.910;8.630;2023-02-22T10:12:04;100849.38;;;12.56;100.00
22872;BME280;11603;44.910;8.630;2023-02-22T10:17:28;100844.44;;;12.62;100.00
22872;BME280;11603;44.910;8.630;2023-02-22T10:25:27;100842.00;;;12.72;100.00
22872;BME280;11603;44.910;8.630;2023-02-22T10:28:00;100844.28;;;12.78;100.00
22872;BME280;11603;44.910;8.630;2023-02-22T10:30:52;100834.00;;;12.85;100.00
22872;BME280;11603;44.910;8.630;2023-02-22T10:33:28;100832.94;;;12.87;100.00
22872;BME280;11603;44.910;8.630;2023-02-22T10:35:55;100835.00;;;12.96;100.00
22872;BME280;11603;44.910;8.630;2023-02-22T10:38:55;100831.91;;;13.02;100.00
22872;BME280;11603;44.910;8.630;2023-02-22T10:43:52;100832.47;;;13.20;100.00
22872;BME280;11603;44.910;8.630;2023-02-22T10:46:20;100829.59;;;13.23;100.00
22872;BME280;11603;44.910;8.630;2023-02-22T10:48:50;100829.34;;;13.26;100.00
22872;BME280;11603;44.910;8.630;2023-02-22T10:51:16;100823.47;;;13.34;100.00
22872;BME280;11603;44.910;8.630;2023-02-22T10:53:43;100829.91;;;13.31;100.00
22872;BME280;11603;44.910;8.630;2023-02-22T10:56:20;100821.09;;;13.29;100.00
22872;BME280;11603;44.910;8.630;2023-02-22T10:58:56;100833.22;;;13.35;100.00
22872;BME280;11603;44.910;8.630;2023-02-22T11:01:25;100811.44;;;13.39;100.00
22872;BME280;11603;44.910;8.630;2023-02-22T11:06:25;100808.81;;;13.50;100.00
22872;BME280;11603;44.910;8.630;2023-02-22T11:08:50;100808.63;;;13.53;100.00
22872;BME280;11603;44.910;8.630;2023-02-22T11:11:23;100803.53;;;13.62;100.00
22872;BME280;11603;44.910;8.630;2023-02-22T11:13:53;100803.22;;;13.66;100.00
22872;BME280;11603;44.910;8.630;2023-02-22T11:16:27;100797.00;;;13.66;100.00
22872;BME280;11603;44.910;8.630;2023-02-22T11:19:10;100796.66;;;13.70;100.00
22872;BME280;11603;44.910;8.630;2023-02-22T11:21:37;100793.66;;;13.75;100.00
22872;BME280;11603;44.910;8.630;2023-02-22T11:24:12;100796.97;;;13.78;100.00
22872;BME280;11603;44.910;8.630;2023-02-22T11:26:48;100787.16;;;13.77;100.00
22872;BME280;11603;44.910;8.630;2023-02-22T11:29:21;100779.63;;;13.82;100.00
22872;BME280;11603;44.910;8.630;2023-02-22T11:31:49;100771.56;;;13.82;100.00
22872;BME280;11603;44.910;8.630;2023-02-22T11:34:28;100763.63;;;13.81;100.00
22872;BME280;11603;44.910;8.630;2023-02-22T11:36:54;100766.19;;;13.82;100.00
22872;BME280;11603;44.910;8.630;2023-02-22T11:39:26;100757.69;;;13.88;100.00
22872;BME280;11603;44.910;8.630;2023-02-22T11:41:54;100758.97;;;13.95;100.00
22872;BME280;11603;44.910;8.630;2023-02-22T11:44:24;100750.53;;;14.00;100.00
22872;BME280;11603;44.910;8.630;2023-02-22T11:46:52;100747.84;;;14.00;100.00
22872;BME280;11603;44.910;8.630;2023-02-22T11:49:22;100752.78;;;14.06;100.00
22872;BME280;11603;44.910;8.630;2023-02-22T11:55:13;100735.44;;;14.10;100.00
22872;BME280;11603;44.910;8.630;2023-02-22T11:58:06;100735.16;;;14.26;100.00
22872;BME280;11603;44.910;8.630;2023-02-22T12:01:01;100728.09;;;14.36;100.00
22872;BME280;11603;44.910;8.630;2023-02-22T12:03:43;100728.94;;;14.49;100.00
22872;BME280;11603;44.910;8.630;2023-02-22T12:09:38;100729.69;;;14.62;100.00
22872;BME280;11603;44.910;8.630;2023-02-22T12:12:34;100716.28;;;14.73;100.00
22872;BME280;11603;44.910;8.630;2023-02-22T12:15:13;100714.94;;;14.79;100.00
22872;BME280;11603;44.910;8.630;2023-02-22T12:26:32;100696.97;;;15.13;100.00
22872;BME280;11603;44.910;8.630;2023-02-22T12:31:22;100694.28;;;15.24;100.00
22872;BME280;11603;44.910;8.630;2023-02-22T12:36:33;100687.31;;;15.44;100.00
22872;BME280;11603;44.910;8.630;2023-02-22T12:39:04;100694.81;;;15.51;100.00
22872;BME280;11603;44.910;8.630;2023-02-22T12:41:42;100686.09;;;15.70;100.00
22872;BME280;11603;44.910;8.630;2023-02-22T12:46:39;100682.34;;;15.93;100.00
22872;BME280;11603;44.910;8.630;2023-02-22T12:49:15;100676.41;;;16.10;100.00
22872;BME280;11603;44.910;8.630;2023-02-22T12:54:59;100670.16;;;16.10;100.00
22872;BME280;11603;44.910;8.630;2023-02-22T13:00:26;100666.72;;;16.08;100.00
22872;BME280;11603;44.910;8.630;2023-02-22T13:02:57;100666.19;;;16.14;100.00
22872;BME280;11603;44.910;8.630;2023-02-22T13:05:25;100657.13;;;16.15;100.00
22872;BME280;11603;44.910;8.630;2023-02-22T13:13:12;100650.34;;;16.21;100.00
22872;BME280;11603;44.910;8.630;2023-02-22T13:24:06;100623.88;;;16.35;100.00
22872;BME280;11603;44.910;8.630;2023-02-22T13:26:53;100628.19;;;16.38;100.00
22872;BME280;11603;44.910;8.630;2023-02-22T13:29:28;100628.09;;;16.28;100.00
22872;BME280;11603;44.910;8.630;2023-02-22T13:40:57;100615.78;;;16.15;100.00
22872;BME280;11603;44.910;8.630;2023-02-22T13:51:52;100616.78;;;15.82;100.00
22872;BME280;11603;44.910;8.630;2023-02-22T13:56:55;100620.28;;;15.93;100.00
22872;BME280;11603;44.910;8.630;2023-02-22T13:59:32;100610.09;;;15.97;100.00
22872;BME280;11603;44.910;8.630;2023-02-22T14:02:00;100607.84;;;16.02;100.00
22872;BME280;11603;44.910;8.630;2023-02-22T14:07:44;100606.16;;;16.01;100.00
22872;BME280;11603;44.910;8.630;2023-02-22T14:09:55;100604.34;;;16.01;100.00
22872;BME280;11603;44.910;8.630;2023-02-22T14:17:43;100594.00;;;16.27;100.00
22872;BME280;11603;44.910;8.630;2023-02-22T14:22:43;100585.16;;;16.46;100.00
22872;BME280;11603;44.910;8.630;2023-02-22T14:25:40;100592.88;;;16.50;100.00
22872;BME280;11603;44.910;8.630;2023-02-22T14:28:08;100587.00;;;16.66;100.00
22872;BME280;11603;44.910;8.630;2023-02-22T14:31:07;100588.03;;;16.54;100.00
22872;BME280;11603;44.910;8.630;2023-02-22T14:36:37;100585.09;;;16.78;100.00
22872;BME280;11603;44.910;8.630;2023-02-22T14:39:23;100589.91;;;16.74;100.00
22872;BME280;11603;44.910;8.630;2023-02-22T14:42:06;100590.41;;;16.89;100.00
22872;BME280;11603;44.910;8.630;2023-02-22T14:55:40;100572.41;;;16.69;100.00
22872;BME280;11603;44.910;8.630;2023-02-22T15:00:56;100584.66;;;16.31;100.00
22872;BME280;11603;44.910;8.630;2023-02-22T15:03:33;100583.34;;;16.05;100.00
22872;BME280;11603;44.910;8.630;2023-02-22T15:06:19;100589.50;;;15.96;100.00
22872;BME280;11603;44.910;8.630;2023-02-22T15:08:52;100577.00;;;15.95;100.00
22872;BME280;11603;44.910;8.630;2023-02-22T15:11:30;100578.50;;;15.88;100.00
22872;BME280;11603;44.910;8.630;2023-02-22T15:14:00;100571.91;;;15.81;100.00
22872;BME280;11603;44.910;8.630;2023-02-22T15:16:29;100567.50;;;15.80;100.00
22872;BME280;11603;44.910;8.630;2023-02-22T15:19:03;100571.66;;;15.84;100.00
22872;BME280;11603;44.910;8.630;2023-02-22T15:21:33;100573.63;;;15.82;100.00